createdAt,value
2018-06-05T00:01:15.085Z,21.30
2018-06-05T00:03:42.649Z,21.30
2018-06-05T00:06:10.261Z,21.30
2018-06-05T00:08:37.913Z,21.30
2018-06-05T00:11:05.518Z,21.30
2018-06-05T00:13:33.115Z,21.30
2018-06-05T00:16:00.696Z,21.20
2018-06-05T00:18:28.276Z,21.30
2018-06-05T00:20:55.942Z,21.20
2018-06-05T00:23:23.634Z,21.10
2018-06-05T00:25:51.187Z,21.10
2018-06-05T00:28:18.765Z,21.10
2018-06-05T00:30:46.570Z,21.10
2018-06-05T00:33:14.092Z,21.10
2018-06-05T00:35:41.657Z,21.00
2018-06-05T00:38:09.194Z,21.00
2018-06-05T00:40:36.818Z,20.90
2018-06-05T00:43:04.377Z,20.90
2018-06-05T00:45:31.932Z,20.90
2018-06-05T00:47:59.470Z,20.90
2018-06-05T00:50:27.181Z,20.90
2018-06-05T00:52:54.746Z,20.90
2018-06-05T00:55:22.287Z,20.90
2018-06-05T00:57:49.970Z,20.90
2018-06-05T01:00:17.653Z,20.80
2018-06-05T01:02:45.296Z,20.80
2018-06-05T01:05:12.920Z,20.80
2018-06-05T01:07:40.509Z,20.70
2018-06-05T01:12:35.585Z,20.70
2018-06-05T01:15:03.378Z,20.70
2018-06-05T01:17:31.023Z,20.70
2018-06-05T01:19:58.627Z,20.60
2018-06-05T01:22:26.158Z,20.60
2018-06-05T01:24:53.918Z,20.60
2018-06-05T01:27:21.538Z,20.50
2018-06-05T01:29:49.100Z,20.50
2018-06-05T01:32:16.634Z,20.50
2018-06-05T01:34:44.260Z,20.50
2018-06-05T01:37:11.892Z,20.50
2018-06-05T01:39:39.479Z,20.40
2018-06-05T01:42:07.366Z,20.40
2018-06-05T01:44:34.953Z,20.40
2018-06-05T01:47:02.572Z,20.30
2018-06-05T01:49:36.028Z,20.30
2018-06-05T01:52:03.629Z,20.30
2018-06-05T01:54:31.199Z,20.30
2018-06-05T01:56:58.789Z,20.20
2018-06-05T01:59:26.369Z,20.20
2018-06-05T02:01:53.954Z,20.20
2018-06-05T02:04:22.317Z,20.10
2018-06-05T02:06:49.853Z,20.10
2018-06-05T02:09:17.403Z,20.10
2018-06-05T02:11:45.102Z,20.00
2018-06-05T02:14:12.696Z,20.00
2018-06-05T02:16:40.226Z,20.00
2018-06-05T02:19:07.835Z,20.00
2018-06-05T02:21:35.433Z,20.00
2018-06-05T02:24:03.068Z,20.00
2018-06-05T02:26:30.684Z,19.90
2018-06-05T02:28:58.223Z,19.90
2018-06-05T02:31:25.784Z,19.90
2018-06-05T02:33:53.382Z,19.80
2018-06-05T02:36:20.904Z,19.80
2018-06-05T02:38:48.506Z,19.80
2018-06-05T02:41:16.197Z,19.70
2018-06-05T02:43:43.785Z,19.80
2018-06-05T02:46:11.400Z,19.70
2018-06-05T02:48:39.009Z,19.70
2018-06-05T02:51:06.621Z,19.70
2018-06-05T02:53:34.212Z,19.70
2018-06-05T02:56:01.781Z,19.70
2018-06-05T02:58:29.374Z,19.70
2018-06-05T03:00:57.094Z,19.60
2018-06-05T03:03:24.889Z,19.60
2018-06-05T03:05:52.380Z,19.60
2018-06-05T03:08:19.962Z,19.60
2018-06-05T03:10:47.594Z,19.50
2018-06-05T03:13:15.104Z,19.50
2018-06-05T03:15:42.666Z,19.50
2018-06-05T03:18:10.286Z,19.50
2018-06-05T03:20:37.832Z,19.50
2018-06-05T03:23:05.840Z,19.50
2018-06-05T03:25:33.452Z,19.50
2018-06-05T03:28:01.012Z,19.40
2018-06-05T03:30:28.561Z,19.40
2018-06-05T03:32:56.178Z,19.40
2018-06-05T03:35:23.719Z,19.50
2018-06-05T03:37:51.223Z,19.50
2018-06-05T03:40:18.818Z,19.60
2018-06-05T03:42:46.396Z,19.60
2018-06-05T03:45:13.946Z,19.60
2018-06-05T03:47:41.506Z,19.70
2018-06-05T03:50:09.136Z,19.70
2018-06-05T03:52:36.670Z,19.70
2018-06-05T03:55:04.313Z,19.80
2018-06-05T03:57:31.881Z,19.90
2018-06-05T03:59:59.444Z,19.80
2018-06-05T04:02:27.056Z,19.90
2018-06-05T04:04:54.630Z,19.90
2018-06-05T04:07:22.249Z,20.00
2018-06-05T04:09:49.931Z,20.10
2018-06-05T04:12:17.492Z,20.10
2018-06-05T04:14:45.075Z,20.10
2018-06-05T04:17:12.759Z,20.20
2018-06-05T04:19:40.416Z,20.30
2018-06-05T04:22:08.363Z,20.40
2018-06-05T04:24:36.455Z,20.50
2018-06-05T04:27:04.193Z,20.50
2018-06-05T04:29:31.749Z,20.60
2018-06-05T04:31:59.348Z,20.90
2018-06-05T04:34:26.913Z,21.50
2018-06-05T04:36:54.712Z,21.90
2018-06-05T04:39:22.467Z,22.40
2018-06-05T04:41:50.017Z,23.00
2018-06-05T04:44:17.565Z,23.50
2018-06-05T04:46:45.159Z,24.10
2018-06-05T04:49:12.742Z,24.40
2018-06-05T04:51:40.645Z,24.70
2018-06-05T04:54:08.433Z,25.20
2018-06-05T04:56:36.003Z,25.60
2018-06-05T04:59:03.541Z,26.00
2018-06-05T05:01:31.131Z,26.40
2018-06-05T05:03:58.697Z,26.70
2018-06-05T05:06:26.281Z,26.90
2018-06-05T05:08:53.845Z,27.10
2018-06-05T05:11:21.392Z,27.40
2018-06-05T05:13:49.275Z,27.50
2018-06-05T05:16:16.925Z,27.70
2018-06-05T05:18:44.605Z,28.00
2018-06-05T05:21:12.185Z,28.40
2018-06-05T05:23:39.773Z,28.40
2018-06-05T05:26:07.369Z,28.60
2018-06-05T05:28:34.957Z,28.40
2018-06-05T05:31:02.565Z,28.60
2018-06-05T05:33:30.129Z,28.70
2018-06-05T05:35:57.668Z,28.80
2018-06-05T05:38:25.233Z,28.80
2018-06-05T05:40:52.781Z,28.50
2018-06-05T05:43:20.337Z,28.20
2018-06-05T05:45:47.949Z,28.00
2018-06-05T05:48:15.513Z,27.70
2018-06-05T05:50:43.031Z,27.60
2018-06-05T05:53:10.601Z,27.50
2018-06-05T05:55:38.258Z,27.50
2018-06-05T05:58:05.877Z,27.50
2018-06-05T06:00:33.580Z,27.40
2018-06-05T06:03:01.428Z,26.90
2018-06-05T06:05:28.972Z,26.80
2018-06-05T06:07:56.665Z,26.70
2018-06-05T06:10:24.227Z,26.70
2018-06-05T06:12:51.794Z,26.80
2018-06-05T06:15:19.500Z,26.90
2018-06-05T06:17:47.073Z,27.10
2018-06-05T06:20:14.962Z,27.20
2018-06-05T06:22:42.558Z,27.30
2018-06-05T06:25:10.170Z,27.30
2018-06-05T06:27:37.720Z,27.20
2018-06-05T06:30:05.352Z,27.20
2018-06-05T06:32:32.908Z,27.30
2018-06-05T06:35:00.450Z,27.40
2018-06-05T06:37:28.079Z,27.80
2018-06-05T06:39:55.626Z,28.20
2018-06-05T06:42:23.269Z,28.60
2018-06-05T06:44:50.868Z,28.90
2018-06-05T06:47:18.474Z,29.10
2018-06-05T06:49:46.036Z,29.40
2018-06-05T06:52:13.888Z,29.90
2018-06-05T06:54:41.562Z,30.20
2018-06-05T06:57:09.182Z,30.30
2018-06-05T06:59:36.750Z,30.70
2018-06-05T07:02:04.754Z,31.10
2018-06-05T07:04:32.363Z,31.60
2018-06-05T07:07:00.025Z,31.90
2018-06-05T07:09:27.597Z,32.20
2018-06-05T07:11:55.363Z,32.50
2018-06-05T07:14:23.054Z,32.90
2018-06-05T07:16:50.577Z,33.30
2018-06-05T07:19:18.129Z,33.80
2018-06-05T07:21:45.901Z,34.10
2018-06-05T07:24:13.715Z,34.10
2018-06-05T07:26:41.370Z,33.90
2018-06-05T07:29:08.971Z,34.00
2018-06-05T07:31:36.649Z,34.20
2018-06-05T07:34:04.452Z,34.40
2018-06-05T07:36:32.087Z,34.60
2018-06-05T07:38:59.627Z,35.20
2018-06-05T07:41:27.379Z,35.90
2018-06-05T07:43:54.951Z,36.60
2018-06-05T07:46:22.559Z,37.20
2018-06-05T07:48:50.174Z,37.50
2018-06-05T07:51:17.773Z,38.00
2018-06-05T07:53:45.331Z,38.80
2018-06-05T07:56:12.953Z,39.60
2018-06-05T07:58:40.541Z,40.10
2018-06-05T08:01:08.110Z,39.40
2018-06-05T08:03:35.665Z,39.40
2018-06-05T08:06:03.283Z,39.80
2018-06-05T08:08:30.853Z,40.00
2018-06-05T08:10:58.653Z,40.10
2018-06-05T08:13:26.375Z,40.30
2018-06-05T08:15:54.002Z,39.60
2018-06-05T08:18:21.641Z,39.80
2018-06-05T08:20:49.443Z,40.80
2018-06-05T08:25:44.684Z,42.30
2018-06-05T08:28:12.277Z,41.20
2018-06-05T08:30:39.947Z,40.30
2018-06-05T08:33:07.573Z,40.10
2018-06-05T08:35:35.110Z,40.30
2018-06-05T08:38:02.732Z,40.80
2018-06-05T08:40:30.362Z,41.20
2018-06-05T08:42:58.065Z,41.50
2018-06-05T08:45:25.625Z,42.40
2018-06-05T08:47:53.286Z,42.70
2018-06-05T08:50:20.867Z,42.50
2018-06-05T08:52:48.469Z,41.80
2018-06-05T08:55:16.079Z,41.00
2018-06-05T08:57:43.677Z,39.30
2018-06-05T09:00:11.350Z,37.30
2018-06-05T09:02:39.174Z,35.70
2018-06-05T09:05:06.852Z,34.30
2018-06-05T09:07:34.616Z,33.30
2018-06-05T09:10:02.347Z,32.30
2018-06-05T09:12:29.976Z,31.50
2018-06-05T09:14:57.520Z,30.70
2018-06-05T09:17:25.233Z,30.20
2018-06-05T09:19:53.066Z,29.90
2018-06-05T09:22:20.725Z,29.70
2018-06-05T09:24:48.280Z,29.60
2018-06-05T09:27:15.990Z,29.30
2018-06-05T09:29:43.720Z,29.20
2018-06-05T09:32:11.310Z,28.90
2018-06-05T09:34:39.159Z,28.70
2018-06-05T09:37:06.910Z,28.50
2018-06-05T09:39:34.483Z,28.40
2018-06-05T09:42:02.106Z,28.30
2018-06-05T09:44:29.702Z,28.20
2018-06-05T09:46:57.346Z,28.10
2018-06-05T09:49:25.034Z,28.00
2018-06-05T09:51:52.654Z,28.00
2018-06-05T09:54:20.346Z,28.00
2018-06-05T09:56:47.956Z,28.10
2018-06-05T09:59:15.594Z,28.10
2018-06-05T10:01:43.132Z,27.90
2018-06-05T10:04:11.109Z,27.90
2018-06-05T10:06:38.900Z,27.90
2018-06-05T10:09:06.846Z,27.90
2018-06-05T10:11:43.340Z,27.90
2018-06-05T10:14:12.951Z,27.90
2018-06-05T10:16:41.819Z,27.90
2018-06-05T10:19:09.570Z,28.00
2018-06-05T10:21:37.156Z,27.90
2018-06-05T10:24:04.973Z,27.90
2018-06-05T10:26:32.772Z,27.80
2018-06-05T10:29:00.657Z,27.80
2018-06-05T10:31:28.444Z,27.80
2018-06-05T10:33:56.274Z,27.80
2018-06-05T10:36:23.865Z,27.90
2018-06-05T10:41:19.179Z,27.80
2018-06-05T10:43:47.147Z,27.60
2018-06-05T10:48:42.518Z,27.40
2018-06-05T10:51:10.169Z,27.40
2018-06-05T10:53:38.036Z,27.30
2018-06-05T10:56:05.729Z,27.40
2018-06-05T10:58:33.493Z,27.50
2018-06-05T11:01:01.066Z,27.60
2018-06-05T11:03:28.683Z,27.60
2018-06-05T11:05:56.213Z,27.70
2018-06-05T11:08:23.793Z,27.70
2018-06-05T11:10:51.767Z,27.80
2018-06-05T11:13:19.351Z,27.80
2018-06-05T11:15:47.006Z,27.80
2018-06-05T11:18:14.728Z,27.80
2018-06-05T11:20:42.393Z,27.80
2018-06-05T11:23:10.046Z,27.90
2018-06-05T11:25:37.680Z,27.80
2018-06-05T11:28:05.343Z,27.70
2018-06-05T11:30:33.004Z,27.70
2018-06-05T11:33:00.646Z,27.70
2018-06-05T11:35:28.318Z,27.70
2018-06-05T11:37:55.960Z,27.70
2018-06-05T11:40:23.619Z,27.70
2018-06-05T11:42:51.218Z,27.70
2018-06-05T11:45:18.886Z,27.70
2018-06-05T11:47:46.486Z,27.70
2018-06-05T11:52:43.590Z,27.60
2018-06-05T11:55:11.178Z,27.60
2018-06-05T11:57:38.836Z,27.60
2018-06-05T12:00:06.494Z,27.60
2018-06-05T12:02:34.070Z,27.60
2018-06-05T12:05:01.714Z,27.60
2018-06-05T12:07:29.432Z,27.60
2018-06-05T12:09:57.044Z,27.70
2018-06-05T12:12:24.663Z,27.70
2018-06-05T12:14:52.350Z,27.70
2018-06-05T12:17:19.978Z,27.60
2018-06-05T12:19:47.688Z,27.60
2018-06-05T12:22:15.320Z,27.70
2018-06-05T12:24:42.930Z,27.70
2018-06-05T12:27:10.493Z,27.80
2018-06-05T12:29:38.038Z,27.80
2018-06-05T12:32:05.826Z,27.70
2018-06-05T12:34:33.438Z,27.70
2018-06-05T12:37:01.089Z,27.60
2018-06-05T12:39:28.848Z,27.60
2018-06-05T12:41:56.510Z,27.60
2018-06-05T12:44:24.252Z,27.60
2018-06-05T12:46:51.836Z,27.70
2018-06-05T12:49:19.398Z,27.70
2018-06-05T12:51:47.031Z,27.80
2018-06-05T12:54:14.668Z,27.80
2018-06-05T12:56:42.292Z,27.80
2018-06-05T12:59:09.916Z,27.80
2018-06-05T13:01:37.498Z,27.80
2018-06-05T13:04:05.188Z,27.80
2018-06-05T13:06:32.802Z,27.80
2018-06-05T13:09:00.373Z,27.70
2018-06-05T13:11:28.139Z,27.70
2018-06-05T13:13:55.772Z,27.70
2018-06-05T13:16:23.337Z,27.70
2018-06-05T13:18:50.924Z,27.80
2018-06-05T13:21:18.532Z,27.80
2018-06-05T13:23:46.116Z,27.80
2018-06-05T13:26:13.709Z,27.80
2018-06-05T13:28:41.356Z,27.80
2018-06-05T13:31:09.005Z,27.80
2018-06-05T13:33:36.590Z,27.80
2018-06-05T13:36:04.144Z,27.80
2018-06-05T13:38:31.747Z,27.80
2018-06-05T13:40:59.347Z,27.80
2018-06-05T13:43:26.986Z,27.80
2018-06-05T13:45:54.584Z,27.80
2018-06-05T13:48:22.162Z,27.80
2018-06-05T13:50:50.286Z,27.70
2018-06-05T13:53:17.969Z,27.70
2018-06-05T13:55:45.606Z,27.70
2018-06-05T13:58:13.293Z,27.70
2018-06-05T14:00:40.877Z,27.70
2018-06-05T14:03:08.523Z,27.70
2018-06-05T14:08:03.810Z,27.70
2018-06-05T14:10:31.393Z,27.70
2018-06-05T14:12:59.687Z,27.70
2018-06-05T14:15:27.239Z,27.80
2018-06-05T14:17:54.837Z,27.80
2018-06-05T14:20:22.545Z,27.80
2018-06-05T14:25:17.613Z,27.80
2018-06-05T14:27:45.193Z,27.80
2018-06-05T14:30:12.736Z,27.80
2018-06-05T14:32:40.333Z,27.80
2018-06-05T14:35:07.929Z,27.80
2018-06-05T14:37:35.538Z,27.80
2018-06-05T14:40:03.786Z,27.80
2018-06-05T14:42:31.406Z,27.80
2018-06-05T14:44:59.043Z,27.80
2018-06-05T14:47:26.572Z,27.80
2018-06-05T14:49:54.371Z,27.70
2018-06-05T14:52:21.955Z,27.60
2018-06-05T14:54:49.522Z,27.60
2018-06-05T14:57:17.156Z,27.60
2018-06-05T14:59:45.008Z,27.60
2018-06-05T15:02:12.683Z,27.60
2018-06-05T15:04:40.442Z,27.50
2018-06-05T15:07:08.016Z,27.60
2018-06-05T15:12:03.178Z,27.60
2018-06-05T15:14:30.904Z,27.50
2018-06-05T15:16:58.490Z,27.50
2018-06-05T15:19:26.074Z,27.50
2018-06-05T15:21:53.705Z,27.40
2018-06-05T15:24:21.328Z,27.40
2018-06-05T15:26:48.928Z,27.40
2018-06-05T15:29:16.507Z,27.40
2018-06-05T15:31:44.186Z,27.40
2018-06-05T15:34:11.833Z,27.30
2018-06-05T15:36:39.553Z,27.30
2018-06-05T15:39:09.628Z,27.30
2018-06-05T15:41:38.523Z,27.20
2018-06-05T15:44:06.188Z,27.20
2018-06-05T15:46:33.739Z,27.20
2018-06-05T15:49:01.554Z,27.20
2018-06-05T15:51:29.124Z,27.20
2018-06-05T15:53:56.825Z,27.20
2018-06-05T15:56:24.462Z,27.20
2018-06-05T15:58:52.117Z,27.20
2018-06-05T16:01:19.939Z,27.20
2018-06-05T16:03:47.651Z,27.20
2018-06-05T16:06:15.291Z,27.20
2018-06-05T16:08:42.877Z,27.20
2018-06-05T16:11:10.677Z,27.10
2018-06-05T16:13:38.262Z,27.20
2018-06-05T16:16:05.866Z,27.10
2018-06-05T16:18:33.457Z,27.10
2018-06-05T16:21:01.037Z,27.10
2018-06-05T16:23:28.637Z,27.10
2018-06-05T16:25:56.293Z,27.00
2018-06-05T16:28:23.865Z,27.00
2018-06-05T16:30:51.445Z,27.00
2018-06-05T16:33:19.091Z,27.00
2018-06-05T16:38:14.175Z,27.00
2018-06-05T16:40:41.913Z,27.00
2018-06-05T16:43:09.493Z,26.90
2018-06-05T16:45:37.093Z,26.80
2018-06-05T16:48:04.701Z,26.80
2018-06-05T16:50:32.271Z,26.80
2018-06-05T16:52:59.869Z,26.80
2018-06-05T16:55:27.525Z,26.80
2018-06-05T16:57:55.096Z,26.70
2018-06-05T17:00:22.713Z,26.70
2018-06-05T17:02:50.307Z,26.70
2018-06-05T17:05:17.929Z,26.60
2018-06-05T17:07:45.525Z,26.60
2018-06-05T17:10:13.153Z,26.60
2018-06-05T17:12:40.705Z,26.50
2018-06-05T17:15:08.285Z,26.50
2018-06-05T17:17:35.952Z,26.40
2018-06-05T17:22:31.168Z,26.30
2018-06-05T17:24:58.739Z,26.30
2018-06-05T17:27:26.386Z,26.30
2018-06-05T17:29:53.868Z,26.20
2018-06-05T17:32:21.591Z,26.20
2018-06-05T17:34:49.205Z,26.20
2018-06-05T17:37:16.796Z,26.10
2018-06-05T17:39:44.626Z,26.10
2018-06-05T17:42:12.175Z,26.00
2018-06-05T17:44:39.750Z,26.00
2018-06-05T17:47:07.356Z,26.00
2018-06-05T17:49:34.950Z,26.00
2018-06-05T17:52:02.646Z,26.00
2018-06-05T17:54:30.297Z,26.00
2018-06-05T17:56:57.854Z,25.90
2018-06-05T17:59:25.499Z,25.90
2018-06-05T18:01:53.109Z,25.90
2018-06-05T18:04:20.710Z,25.90
2018-06-05T18:06:48.316Z,25.90
2018-06-05T18:09:15.877Z,25.90
2018-06-05T18:11:43.446Z,25.80
2018-06-05T18:14:11.019Z,25.80
2018-06-05T18:16:38.682Z,25.80
2018-06-05T18:19:06.244Z,25.80
2018-06-05T18:21:33.832Z,25.70
2018-06-05T18:24:01.590Z,25.80
2018-06-05T18:26:29.157Z,25.70
2018-06-05T18:28:56.690Z,25.80
2018-06-05T18:31:24.330Z,25.80
2018-06-05T18:33:51.870Z,25.80
2018-06-05T18:36:19.476Z,25.80
2018-06-05T18:38:47.100Z,25.70
2018-06-05T18:41:14.989Z,25.60
2018-06-05T18:43:42.625Z,25.50
2018-06-05T18:46:10.263Z,25.40
2018-06-05T18:48:37.884Z,25.20
2018-06-05T18:51:05.863Z,25.10
2018-06-05T18:53:33.508Z,25.00
2018-06-05T18:56:01.106Z,24.90
2018-06-05T18:58:29.054Z,24.80
2018-06-05T19:00:56.744Z,24.70
2018-06-05T19:03:24.540Z,24.70
2018-06-05T19:05:52.158Z,24.60
2018-06-05T19:10:47.360Z,24.40
2018-06-05T19:13:14.988Z,24.30
2018-06-05T19:15:43.195Z,24.20
2018-06-05T19:20:45.223Z,24.00
2018-06-05T19:23:13.101Z,24.00
2018-06-05T19:25:40.703Z,23.90
2018-06-05T19:28:08.351Z,23.80
2018-06-05T19:30:36.035Z,23.70
2018-06-05T19:33:03.653Z,23.70
2018-06-05T19:35:31.278Z,23.60
2018-06-05T19:37:58.970Z,23.60
2018-06-05T19:40:26.597Z,23.50
2018-06-05T19:42:54.203Z,23.40
2018-06-05T19:45:21.779Z,23.40
2018-06-05T19:47:49.345Z,23.30
2018-06-05T19:50:17.004Z,23.20
2018-06-05T19:52:44.624Z,23.20
2018-06-05T19:55:15.309Z,23.00
2018-06-05T19:57:43.694Z,23.00
2018-06-05T20:00:11.428Z,23.00
2018-06-05T20:02:39.053Z,22.90
2018-06-05T20:05:06.751Z,22.90
2018-06-05T20:07:34.920Z,22.80
2018-06-05T20:10:02.548Z,22.80
2018-06-05T20:12:30.201Z,22.70
2018-06-05T20:14:57.772Z,22.70
2018-06-05T20:17:25.419Z,22.60
2018-06-05T20:19:53.014Z,22.50
2018-06-05T20:22:20.638Z,22.40
2018-06-05T20:24:49.072Z,22.40
2018-06-05T20:27:16.705Z,22.30
2018-06-05T20:29:44.254Z,22.30
2018-06-05T20:32:11.830Z,22.20
2018-06-05T20:34:39.490Z,22.10
2018-06-05T20:37:07.072Z,22.10
2018-06-05T20:39:34.839Z,22.00
2018-06-05T20:42:02.446Z,22.00
2018-06-05T20:44:30.030Z,21.90
2018-06-05T20:46:57.609Z,21.90
2018-06-05T20:49:25.230Z,21.80
2018-06-05T20:51:52.847Z,21.80
2018-06-05T20:54:20.523Z,21.70
2018-06-05T20:56:48.161Z,21.70
2018-06-05T20:59:15.849Z,21.60
2018-06-05T21:01:43.451Z,21.60
2018-06-05T21:04:11.097Z,21.60
2018-06-05T21:06:38.639Z,21.50
2018-06-05T21:09:06.653Z,21.50
2018-06-05T21:11:34.240Z,21.40
2018-06-05T21:14:01.887Z,21.40
2018-06-05T21:18:56.989Z,21.30
2018-06-05T21:23:52.041Z,21.30
2018-06-05T21:26:19.685Z,21.30
2018-06-05T21:28:47.339Z,21.20
2018-06-05T21:31:14.918Z,21.20
2018-06-05T21:33:42.525Z,21.20
2018-06-05T21:36:10.087Z,21.10
2018-06-05T21:38:37.717Z,21.10
2018-06-05T21:41:05.327Z,21.10
2018-06-05T21:43:32.934Z,21.10
2018-06-05T21:46:00.443Z,21.00
2018-06-05T21:48:28.015Z,21.00
2018-06-05T21:50:55.555Z,21.00
2018-06-05T21:53:23.081Z,21.00
2018-06-05T21:55:50.674Z,20.90
2018-06-05T21:58:18.209Z,20.90
2018-06-05T22:00:46.813Z,20.90
2018-06-05T22:03:14.366Z,20.90
2018-06-05T22:05:41.905Z,20.90
2018-06-05T22:08:09.494Z,20.90
2018-06-05T22:10:37.134Z,20.90
2018-06-05T22:13:04.670Z,20.90
2018-06-05T22:15:32.206Z,20.80
2018-06-05T22:17:59.786Z,20.80
2018-06-05T22:20:27.332Z,20.80
2018-06-05T22:22:54.890Z,20.70
2018-06-05T22:25:22.466Z,20.70
2018-06-05T22:27:50.006Z,20.70
2018-06-05T22:30:17.622Z,20.60
2018-06-05T22:32:45.146Z,20.60
2018-06-05T22:35:12.750Z,20.60
2018-06-05T22:37:40.294Z,20.60
2018-06-05T22:40:07.858Z,20.50
2018-06-05T22:42:35.496Z,20.60
2018-06-05T22:45:03.102Z,20.50
2018-06-05T22:47:30.658Z,20.50
2018-06-05T22:52:25.704Z,20.40
2018-06-05T22:54:53.288Z,20.40
2018-06-05T22:57:20.826Z,20.40
2018-06-05T22:59:48.440Z,20.40
2018-06-05T23:02:16.154Z,20.40
2018-06-05T23:04:43.738Z,20.30
2018-06-05T23:07:11.266Z,20.30
2018-06-05T23:09:38.826Z,20.30
2018-06-05T23:12:06.360Z,20.30
2018-06-05T23:17:01.431Z,20.20
2018-06-05T23:19:29.012Z,20.20
2018-06-05T23:21:56.570Z,20.20
2018-06-05T23:24:24.181Z,20.20
2018-06-05T23:26:51.739Z,20.20
2018-06-05T23:29:19.292Z,20.10
2018-06-05T23:31:46.858Z,20.10
2018-06-05T23:34:14.436Z,20.10
2018-06-05T23:36:42.044Z,20.10
2018-06-05T23:39:09.607Z,20.10
2018-06-05T23:41:37.186Z,20.00
2018-06-05T23:44:04.777Z,20.00
2018-06-05T23:46:32.393Z,20.00
2018-06-05T23:48:59.933Z,19.90
2018-06-05T23:51:27.523Z,19.90
2018-06-05T23:53:55.071Z,19.90
2018-06-05T23:56:22.626Z,19.80
2018-06-05T23:58:50.226Z,19.80
